首页
METAR-TAF:

METAR-TAF

机场 :

聖地牙哥, 多米尼加共和国

纬度: 19-27N, 经度: 070-42W, 海拔: 183米

当前天气观测

该预报发布于1小时和6分钟前的15:00 UTC
风速6节,风向东南
温度 30°C
湿度 66%
气压 1019 hPa
能见度10公里或以上
少量云层高于2200英尺

METAR: MDST 161500Z 13006KT 9999 FEW022 30/23 Q1019

时间: 12:06 (16:06 UTC)

预报

该预报发布于6小时和6分钟前的10:00 UTC
预报有效从16日的 12点(UTC)到 17日的 12点(UTC)
风速15节,风向东转东南
能见度10公里或以上
散云层高于2000英尺
散云层高于30000英尺

TAF: MDST 161000Z 1612/1712 11015KT 9999 SCT020 SCT300

超过4000个机场的气象观测和天气预报(METAR&TAF报告)。

可查询的气象台以黄色和红色小点在地图上表示。

将鼠标移到小点上方,可查看气象台名称。

然后点击查看天气观测和预报。

如需切换地图:点击带黑十字的绿色按钮放大地图;点击带横线的绿色按钮缩小地图;或者点击绿色箭头查看邻近地区的地图。


METAR-TAF: